sensor_id;sensor_type;location;lat;lon;timestamp;pressure;altitude;pressure_sealevel;temperature;humidity
7768;BME280;3928;42.626;23.382;2022-09-02T00:02:12;93898.44;;;20.05;100.00
7768;BME280;3928;42.626;23.382;2022-09-02T00:04:41;93890.72;;;20.03;100.00
7768;BME280;3928;42.626;23.382;2022-09-02T00:07:09;93897.81;;;20.15;100.00
7768;BME280;3928;42.626;23.382;2022-09-02T00:09:36;93897.44;;;20.22;100.00
7768;BME280;3928;42.626;23.382;2022-09-02T00:12:06;93901.44;;;20.27;100.00
7768;BME280;3928;42.626;23.382;2022-09-02T00:14:35;93885.06;;;20.25;100.00
7768;BME280;3928;42.626;23.382;2022-09-02T00:17:03;93902.91;;;20.31;100.00
7768;BME280;3928;42.626;23.382;2022-09-02T00:19:30;93898.28;;;20.36;100.00
7768;BME280;3928;42.626;23.382;2022-09-02T00:21:59;93896.41;;;20.38;100.00
7768;BME280;3928;42.626;23.382;2022-09-02T00:24:27;93897.72;;;20.46;100.00
7768;BME280;3928;42.626;23.382;2022-09-02T00:26:54;93899.97;;;20.52;100.00
7768;BME280;3928;42.626;23.382;2022-09-02T00:29:21;93898.84;;;20.56;100.00
7768;BME280;3928;42.626;23.382;2022-09-02T00:31:48;93908.91;;;20.62;100.00
7768;BME280;3928;42.626;23.382;2022-09-02T00:34:15;93914.66;;;20.67;100.00
7768;BME280;3928;42.626;23.382;2022-09-02T00:36:42;93911.84;;;20.70;100.00
7768;BME280;3928;42.626;23.382;2022-09-02T00:39:09;93915.03;;;20.75;100.00
7768;BME280;3928;42.626;23.382;2022-09-02T00:41:39;93912.03;;;20.81;100.00
7768;BME280;3928;42.626;23.382;2022-09-02T00:44:09;93913.44;;;20.87;100.00
7768;BME280;3928;42.626;23.382;2022-09-02T00:46:36;93922.63;;;20.92;100.00
7768;BME280;3928;42.626;23.382;2022-09-02T00:49:08;93920.84;;;20.93;100.00
7768;BME280;3928;42.626;23.382;2022-09-02T00:51:40;93924.13;;;20.96;100.00
7768;BME280;3928;42.626;23.382;2022-09-02T00:54:08;93917.97;;;20.97;100.00
7768;BME280;3928;42.626;23.382;2022-09-02T00:56:38;93923.94;;;20.99;100.00
7768;BME280;3928;42.626;23.382;2022-09-02T00:59:06;93919.44;;;21.01;100.00
7768;BME280;3928;42.626;23.382;2022-09-02T01:01:33;93917.03;;;20.98;100.00
7768;BME280;3928;42.626;23.382;2022-09-02T01:04:00;93921.31;;;20.99;100.00
7768;BME280;3928;42.626;23.382;2022-09-02T01:06:27;93928.09;;;21.02;100.00
7768;BME280;3928;42.626;23.382;2022-09-02T01:09:00;93922.09;;;20.87;100.00
7768;BME280;3928;42.626;23.382;2022-09-02T01:11:28;93920.88;;;20.79;100.00
7768;BME280;3928;42.626;23.382;2022-09-02T01:14:05;93917.53;;;20.77;100.00
7768;BME280;3928;42.626;23.382;2022-09-02T01:16:38;93911.69;;;20.73;100.00
7768;BME280;3928;42.626;23.382;2022-09-02T01:19:16;93914.19;;;20.75;100.00
7768;BME280;3928;42.626;23.382;2022-09-02T01:21:49;93914.66;;;20.67;100.00
7768;BME280;3928;42.626;23.382;2022-09-02T01:24:18;93911.31;;;20.65;100.00
7768;BME280;3928;42.626;23.382;2022-09-02T01:26:46;93905.81;;;20.69;100.00
7768;BME280;3928;42.626;23.382;2022-09-02T01:29:13;93905.72;;;20.57;100.00
7768;BME280;3928;42.626;23.382;2022-09-02T01:31:42;93899.66;;;20.70;100.00
7768;BME280;3928;42.626;23.382;2022-09-02T01:34:09;93910.75;;;20.74;100.00
7768;BME280;3928;42.626;23.382;2022-09-02T01:36:37;93911.09;;;20.82;100.00
7768;BME280;3928;42.626;23.382;2022-09-02T01:39:06;93900.66;;;20.82;100.00
7768;BME280;3928;42.626;23.382;2022-09-02T01:41:33;93904.47;;;20.91;100.00
7768;BME280;3928;42.626;23.382;2022-09-02T01:44:00;93906.97;;;20.92;100.00
7768;BME280;3928;42.626;23.382;2022-09-02T01:46:27;93897.28;;;20.94;100.00
7768;BME280;3928;42.626;23.382;2022-09-02T01:48:54;93889.28;;;20.97;100.00
7768;BME280;3928;42.626;23.382;2022-09-02T01:51:21;93885.75;;;20.98;100.00
7768;BME280;3928;42.626;23.382;2022-09-02T01:53:48;93872.13;;;20.93;100.00
7768;BME280;3928;42.626;23.382;2022-09-02T01:56:16;93875.56;;;21.08;100.00
7768;BME280;3928;42.626;23.382;2022-09-02T01:58:43;93882.13;;;21.14;100.00
7768;BME280;3928;42.626;23.382;2022-09-02T02:01:10;93866.09;;;21.20;100.00
7768;BME280;3928;42.626;23.382;2022-09-02T02:03:37;93878.09;;;21.22;100.00
7768;BME280;3928;42.626;23.382;2022-09-02T02:06:07;93876.16;;;21.26;100.00
7768;BME280;3928;42.626;23.382;2022-09-02T02:08:34;93874.19;;;21.29;100.00
7768;BME280;3928;42.626;23.382;2022-09-02T02:11:01;93877.44;;;21.33;100.00
7768;BME280;3928;42.626;23.382;2022-09-02T02:13:30;93880.22;;;21.30;100.00
7768;BME280;3928;42.626;23.382;2022-09-02T02:15:57;93879.41;;;21.29;100.00
7768;BME280;3928;42.626;23.382;2022-09-02T02:18:24;93869.22;;;21.25;100.00
7768;BME280;3928;42.626;23.382;2022-09-02T02:20:51;93883.59;;;21.18;100.00
7768;BME280;3928;42.626;23.382;2022-09-02T02:23:17;93882.88;;;21.16;100.00
7768;BME280;3928;42.626;23.382;2022-09-02T02:25:44;93865.00;;;21.10;100.00
7768;BME280;3928;42.626;23.382;2022-09-02T02:28:11;93874.31;;;21.14;100.00
7768;BME280;3928;42.626;23.382;2022-09-02T02:30:40;93882.88;;;21.16;100.00
7768;BME280;3928;42.626;23.382;2022-09-02T02:33:07;93886.41;;;21.15;100.00
7768;BME280;3928;42.626;23.382;2022-09-02T02:35:34;93880.38;;;21.14;100.00
7768;BME280;3928;42.626;23.382;2022-09-02T02:38:01;93887.16;;;21.17;100.00
7768;BME280;3928;42.626;23.382;2022-09-02T02:40:28;93883.59;;;21.18;100.00
7768;BME280;3928;42.626;23.382;2022-09-02T02:42:55;93879.53;;;21.14;100.00
7768;BME280;3928;42.626;23.382;2022-09-02T02:45:22;93888.00;;;21.17;100.00
7768;BME280;3928;42.626;23.382;2022-09-02T02:47:51;93874.16;;;21.02;100.00
7768;BME280;3928;42.626;23.382;2022-09-02T02:50:19;93886.47;;;21.00;100.00
7768;BME280;3928;42.626;23.382;2022-09-02T02:52:46;93893.25;;;21.03;100.00
7768;BME280;3928;42.626;23.382;2022-09-02T02:55:15;93892.41;;;21.02;100.00
7768;BME280;3928;42.626;23.382;2022-09-02T02:57:43;93890.94;;;20.98;100.00
7768;BME280;3928;42.626;23.382;2022-09-02T03:00:14;93889.91;;;21.01;100.00
7768;BME280;3928;42.626;23.382;2022-09-02T03:02:41;93892.06;;;20.94;100.00
7768;BME280;3928;42.626;23.382;2022-09-02T03:05:12;93895.81;;;20.90;100.00
7768;BME280;3928;42.626;23.382;2022-09-02T03:07:40;93898.41;;;20.90;100.00
7768;BME280;3928;42.626;23.382;2022-09-02T03:10:09;93887.97;;;20.90;100.00
7768;BME280;3928;42.626;23.382;2022-09-02T03:12:37;93894.88;;;20.91;100.00
7768;BME280;3928;42.626;23.382;2022-09-02T03:15:06;93877.19;;;20.82;100.00
7768;BME280;3928;42.626;23.382;2022-09-02T03:17:33;93889.84;;;20.88;100.00
7768;BME280;3928;42.626;23.382;2022-09-02T03:20:00;93888.19;;;20.87;100.00
7768;BME280;3928;42.626;23.382;2022-09-02T03:22:29;93883.91;;;20.86;100.00
7768;BME280;3928;42.626;23.382;2022-09-02T03:24:56;93883.91;;;20.86;100.00
7768;BME280;3928;42.626;23.382;2022-09-02T03:27:23;93883.91;;;20.86;100.00
7768;BME280;3928;42.626;23.382;2022-09-02T03:29:50;93892.38;;;20.90;100.00
7768;BME280;3928;42.626;23.382;2022-09-02T03:32:17;93898.50;;;20.89;100.00
7768;BME280;3928;42.626;23.382;2022-09-02T03:34:43;93898.50;;;20.89;100.00
7768;BME280;3928;42.626;23.382;2022-09-02T03:37:10;93898.16;;;20.81;100.00
7768;BME280;3928;42.626;23.382;2022-09-02T03:39:39;93901.81;;;20.78;100.00
7768;BME280;3928;42.626;23.382;2022-09-02T03:42:06;93907.84;;;20.79;100.00
7768;BME280;3928;42.626;23.382;2022-09-02T03:44:33;93904.41;;;20.78;100.00
7768;BME280;3928;42.626;23.382;2022-09-02T03:47:00;93905.97;;;20.81;100.00
7768;BME280;3928;42.626;23.382;2022-09-02T03:49:27;93886.72;;;20.69;100.00
7768;BME280;3928;42.626;23.382;2022-09-02T03:51:54;93913.16;;;20.77;100.00
7768;BME280;3928;42.626;23.382;2022-09-02T03:54:21;93905.16;;;20.66;100.00
7768;BME280;3928;42.626;23.382;2022-09-02T03:56:49;93920.63;;;20.69;100.00
7768;BME280;3928;42.626;23.382;2022-09-02T03:59:17;93917.28;;;20.67;100.00
7768;BME280;3928;42.626;23.382;2022-09-02T04:01:43;93926.75;;;20.68;100.00
7768;BME280;3928;42.626;23.382;2022-09-02T04:04:11;93939.81;;;20.68;100.00
7768;BME280;3928;42.626;23.382;2022-09-02T04:06:39;93934.50;;;20.69;100.00
7768;BME280;3928;42.626;23.382;2022-09-02T04:09:05;93935.22;;;20.71;100.00
7768;BME280;3928;42.626;23.382;2022-09-02T04:11:33;93934.59;;;20.68;100.00
7768;BME280;3928;42.626;23.382;2022-09-02T04:14:03;93939.44;;;20.74;100.00
7768;BME280;3928;42.626;23.382;2022-09-02T04:16:29;93947.06;;;20.77;100.00
7768;BME280;3928;42.626;23.382;2022-09-02T04:18:57;93929.19;;;20.71;100.00
7768;BME280;3928;42.626;23.382;2022-09-02T04:21:26;93943.44;;;20.80;100.00
7768;BME280;3928;42.626;23.382;2022-09-02T04:23:54;93954.34;;;20.72;100.00
7768;BME280;3928;42.626;23.382;2022-09-02T04:26:22;93952.47;;;20.60;100.00
7768;BME280;3928;42.626;23.382;2022-09-02T04:28:49;93960.47;;;20.57;100.00
7768;BME280;3928;42.626;23.382;2022-09-02T04:31:21;93960.56;;;20.55;100.00
7768;BME280;3928;42.626;23.382;2022-09-02T04:33:50;93963.47;;;20.51;100.00
7768;BME280;3928;42.626;23.382;2022-09-02T04:36:18;93958.63;;;20.44;100.00
7768;BME280;3928;42.626;23.382;2022-09-02T04:38:46;93964.41;;;20.50;100.00
7768;BME280;3928;42.626;23.382;2022-09-02T04:41:16;93962.53;;;20.52;100.00
7768;BME280;3928;42.626;23.382;2022-09-02T04:43:44;93965.06;;;20.53;100.00
7768;BME280;3928;42.626;23.382;2022-09-02T04:46:12;93968.78;;;20.49;100.00
7768;BME280;3928;42.626;23.382;2022-09-02T04:48:42;93971.25;;;20.36;100.00
7768;BME280;3928;42.626;23.382;2022-09-02T04:51:11;93967.13;;;20.18;100.00
7768;BME280;3928;42.626;23.382;2022-09-02T04:53:39;93968.50;;;20.09;100.00
7768;BME280;3928;42.626;23.382;2022-09-02T04:56:07;93971.84;;;20.11;100.00
7768;BME280;3928;42.626;23.382;2022-09-02T04:58:35;93968.91;;;20.18;100.00
7768;BME280;3928;42.626;23.382;2022-09-02T05:01:04;93978.19;;;20.22;100.00
7768;BME280;3928;42.626;23.382;2022-09-02T05:03:31;93971.97;;;20.24;100.00
7768;BME280;3928;42.626;23.382;2022-09-02T05:06:02;93963.78;;;20.16;100.00
7768;BME280;3928;42.626;23.382;2022-09-02T05:08:30;93973.28;;;20.17;100.00
7768;BME280;3928;42.626;23.382;2022-09-02T05:10:57;93974.56;;;20.10;100.00
7768;BME280;3928;42.626;23.382;2022-09-02T05:13:24;93972.88;;;20.09;100.00
7768;BME280;3928;42.626;23.382;2022-09-02T05:15:51;93974.84;;;20.05;100.00
7768;BME280;3928;42.626;23.382;2022-09-02T05:18:19;93975.09;;;20.01;100.00
7768;BME280;3928;42.626;23.382;2022-09-02T05:20:45;93970.81;;;20.00;100.00
7768;BME280;3928;42.626;23.382;2022-09-02T05:23:14;93976.00;;;20.00;100.00
7768;BME280;3928;42.626;23.382;2022-09-02T05:25:40;93984.66;;;20.00;100.00
7768;BME280;3928;42.626;23.382;2022-09-02T05:28:08;93982.53;;;19.93;100.00
7768;BME280;3928;42.626;23.382;2022-09-02T05:30:35;93977.41;;;19.91;100.00
7768;BME280;3928;42.626;23.382;2022-09-02T05:33:02;93965.38;;;19.89;100.00
7768;BME280;3928;42.626;23.382;2022-09-02T05:35:29;93980.94;;;19.90;100.00
7768;BME280;3928;42.626;23.382;2022-09-02T05:37:56;93977.41;;;19.91;100.00
7768;BME280;3928;42.626;23.382;2022-09-02T05:40:24;93979.19;;;19.91;100.00
7768;BME280;3928;42.626;23.382;2022-09-02T05:42:51;93977.97;;;19.96;100.00
7768;BME280;3928;42.626;23.382;2022-09-02T05:45:18;93973.06;;;20.06;100.00
7768;BME280;3928;42.626;23.382;2022-09-02T05:47:48;93968.72;;;20.21;100.00
7768;BME280;3928;42.626;23.382;2022-09-02T05:50:15;93971.06;;;20.39;100.00
7768;BME280;3928;42.626;23.382;2022-09-02T05:52:42;93957.44;;;20.50;100.00
7768;BME280;3928;42.626;23.382;2022-09-02T05:55:10;93971.84;;;20.70;100.00
7768;BME280;3928;42.626;23.382;2022-09-02T05:57:38;93966.81;;;20.81;100.00
7768;BME280;3928;42.626;23.382;2022-09-02T06:00:06;93969.22;;;20.98;100.00
7768;BME280;3928;42.626;23.382;2022-09-02T06:02:33;93969.72;;;21.18;100.00
7768;BME280;3928;42.626;23.382;2022-09-02T06:05:00;93974.66;;;21.37;100.00
7768;BME280;3928;42.626;23.382;2022-09-02T06:07:27;93979.09;;;21.49;100.00
7768;BME280;3928;42.626;23.382;2022-09-02T06:09:54;93970.56;;;21.59;100.00
7768;BME280;3928;42.626;23.382;2022-09-02T06:12:21;93963.09;;;21.68;100.00
7768;BME280;3928;42.626;23.382;2022-09-02T06:14:49;93973.22;;;21.72;100.00
7768;BME280;3928;42.626;23.382;2022-09-02T06:17:16;93977.75;;;21.83;100.00
7768;BME280;3928;42.626;23.382;2022-09-02T06:19:43;93978.09;;;21.91;100.00
7768;BME280;3928;42.626;23.382;2022-09-02T06:22:10;93968.06;;;21.98;100.00
7768;BME280;3928;42.626;23.382;2022-09-02T06:24:36;93972.22;;;22.00;100.00
7768;BME280;3928;42.626;23.382;2022-09-02T06:27:03;93975.41;;;22.05;100.00
7768;BME280;3928;42.626;23.382;2022-09-02T06:29:31;93975.31;;;22.07;100.00
7768;BME280;3928;42.626;23.382;2022-09-02T06:32:00;93972.59;;;22.08;100.00
7768;BME280;3928;42.626;23.382;2022-09-02T06:34:27;93977.44;;;22.14;100.00
7768;BME280;3928;42.626;23.382;2022-09-02T06:36:55;93985.78;;;22.20;100.00
7768;BME280;3928;42.626;23.382;2022-09-02T06:39:23;93985.47;;;22.24;100.00
7768;BME280;3928;42.626;23.382;2022-09-02T06:41:50;93985.91;;;22.31;100.00
7768;BME280;3928;42.626;23.382;2022-09-02T06:44:18;93989.03;;;22.36;100.00
7768;BME280;3928;42.626;23.382;2022-09-02T06:46:53;93989.59;;;22.41;100.00
7768;BME280;3928;42.626;23.382;2022-09-02T06:49:26;93992.72;;;22.46;100.00
7768;BME280;3928;42.626;23.382;2022-09-02T06:51:54;93991.25;;;22.42;100.00
7768;BME280;3928;42.626;23.382;2022-09-02T06:54:22;93988.44;;;22.45;100.00
7768;BME280;3928;42.626;23.382;2022-09-02T06:56:50;93994.19;;;22.50;100.00
7768;BME280;3928;42.626;23.382;2022-09-02T06:59:19;93991.88;;;22.45;100.00
7768;BME280;3928;42.626;23.382;2022-09-02T07:01:46;93991.59;;;22.50;100.00
7768;BME280;3928;42.626;23.382;2022-09-02T07:04:13;93990.53;;;22.53;100.00
7768;BME280;3928;42.626;23.382;2022-09-02T07:06:59;93993.03;;;22.54;100.00
7768;BME280;3928;42.626;23.382;2022-09-02T07:09:27;94002.22;;;22.60;100.00
7768;BME280;3928;42.626;23.382;2022-09-02T07:11:57;94001.00;;;22.65;100.00
7768;BME280;3928;42.626;23.382;2022-09-02T07:14:25;94006.53;;;22.61;97.17
7768;BME280;3928;42.626;23.382;2022-09-02T07:16:54;93993.16;;;22.53;97.77
7768;BME280;3928;42.626;23.382;2022-09-02T07:19:23;94005.16;;;22.55;99.74
7768;BME280;3928;42.626;23.382;2022-09-02T07:21:50;94000.66;;;22.57;97.54
7768;BME280;3928;42.626;23.382;2022-09-02T07:24:18;94012.91;;;22.57;95.47
7768;BME280;3928;42.626;23.382;2022-09-02T07:26:45;94014.47;;;22.59;95.33
7768;BME280;3928;42.626;23.382;2022-09-02T07:29:12;94010.50;;;22.66;97.09
7768;BME280;3928;42.626;23.382;2022-09-02T07:31:42;94009.16;;;22.73;95.28
7768;BME280;3928;42.626;23.382;2022-09-02T07:34:10;94007.88;;;22.79;93.96
7768;BME280;3928;42.626;23.382;2022-09-02T07:36:39;94008.97;;;22.89;95.17
7768;BME280;3928;42.626;23.382;2022-09-02T07:39:08;94011.97;;;22.96;95.81
7768;BME280;3928;42.626;23.382;2022-09-02T07:41:38;94022.03;;;23.02;96.14
7768;BME280;3928;42.626;23.382;2022-09-02T07:44:06;94017.84;;;22.99;92.55
7768;BME280;3928;42.626;23.382;2022-09-02T07:46:33;94020.16;;;22.91;91.34
7768;BME280;3928;42.626;23.382;2022-09-02T07:49:02;94014.91;;;22.79;91.57
7768;BME280;3928;42.626;23.382;2022-09-02T07:51:30;94008.63;;;22.68;94.22
7768;BME280;3928;42.626;23.382;2022-09-02T07:53:58;93976.19;;;22.45;94.81
7768;BME280;3928;42.626;23.382;2022-09-02T07:56:25;94012.81;;;22.71;94.77
7768;BME280;3928;42.626;23.382;2022-09-02T07:58:53;94008.41;;;22.71;94.79
7768;BME280;3928;42.626;23.382;2022-09-02T08:01:20;94026.19;;;22.79;94.55
7768;BME280;3928;42.626;23.382;2022-09-02T08:03:48;94029.53;;;22.81;95.52
7768;BME280;3928;42.626;23.382;2022-09-02T08:06:14;94024.41;;;22.80;95.59
7768;BME280;3928;42.626;23.382;2022-09-02T08:08:42;94031.53;;;22.77;96.13
7768;BME280;3928;42.626;23.382;2022-09-02T08:11:09;94031.53;;;22.77;94.48
7768;BME280;3928;42.626;23.382;2022-09-02T08:13:36;94019.63;;;22.73;94.70
7768;BME280;3928;42.626;23.382;2022-09-02T08:16:05;94031.75;;;22.74;96.15
7768;BME280;3928;42.626;23.382;2022-09-02T08:18:32;94030.72;;;22.77;96.34
7768;BME280;3928;42.626;23.382;2022-09-02T08:20:59;94035.41;;;22.72;92.95
7768;BME280;3928;42.626;23.382;2022-09-02T08:23:26;94038.34;;;22.67;94.48
7768;BME280;3928;42.626;23.382;2022-09-02T08:25:53;94040.44;;;22.62;94.90
7768;BME280;3928;42.626;23.382;2022-09-02T08:28:20;94036.22;;;22.60;96.26
7768;BME280;3928;42.626;23.382;2022-09-02T08:30:47;94030.06;;;22.61;96.44
7768;BME280;3928;42.626;23.382;2022-09-02T08:33:16;94025.47;;;22.64;96.29
7768;BME280;3928;42.626;23.382;2022-09-02T08:35:42;94034.78;;;22.68;97.26
7768;BME280;3928;42.626;23.382;2022-09-02T08:38:09;94031.00;;;22.72;97.29
7768;BME280;3928;42.626;23.382;2022-09-02T08:40:39;94020.53;;;22.72;97.47
7768;BME280;3928;42.626;23.382;2022-09-02T08:43:25;94029.16;;;22.74;96.03
7768;BME280;3928;42.626;23.382;2022-09-02T08:45:56;94021.38;;;22.73;96.07
7768;BME280;3928;42.626;23.382;2022-09-02T08:48:33;94019.63;;;22.73;97.32
7768;BME280;3928;42.626;23.382;2022-09-02T08:51:04;94018.69;;;22.74;98.45
7768;BME280;3928;42.626;23.382;2022-09-02T08:53:36;94020.84;;;22.81;98.59
7768;BME280;3928;42.626;23.382;2022-09-02T08:56:07;94025.97;;;22.82;97.15
7768;BME280;3928;42.626;23.382;2022-09-02T08:58:39;94021.44;;;22.86;97.17
7768;BME280;3928;42.626;23.382;2022-09-02T09:01:13;94021.94;;;22.91;98.43
7768;BME280;3928;42.626;23.382;2022-09-02T09:04:08;94027.59;;;22.97;98.46
7768;BME280;3928;42.626;23.382;2022-09-02T09:06:47;94021.91;;;23.03;97.73
7768;BME280;3928;42.626;23.382;2022-09-02T09:09:27;94021.59;;;23.08;98.08
7768;BME280;3928;42.626;23.382;2022-09-02T09:12:08;94019.72;;;23.10;97.10
7768;BME280;3928;42.626;23.382;2022-09-02T09:14:43;94015.31;;;23.11;97.07
7768;BME280;3928;42.626;23.382;2022-09-02T09:17:19;94012.72;;;23.11;97.96
7768;BME280;3928;42.626;23.382;2022-09-02T09:19:53;94009.16;;;23.12;98.04
7768;BME280;3928;42.626;23.382;2022-09-02T09:22:25;94002.75;;;23.16;98.58
7768;BME280;3928;42.626;23.382;2022-09-02T09:24:56;94001.69;;;23.18;98.00
7768;BME280;3928;42.626;23.382;2022-09-02T09:27:23;94001.47;;;23.21;98.07
7768;BME280;3928;42.626;23.382;2022-09-02T09:29:51;94002.91;;;23.38;97.78
7768;BME280;3928;42.626;23.382;2022-09-02T09:32:25;94010.72;;;23.51;96.90
7768;BME280;3928;42.626;23.382;2022-09-02T09:34:57;94006.91;;;23.68;96.40
7768;BME280;3928;42.626;23.382;2022-09-02T09:37:31;93993.97;;;23.77;94.80
7768;BME280;3928;42.626;23.382;2022-09-02T09:39:59;94005.16;;;24.03;93.20
7768;BME280;3928;42.626;23.382;2022-09-02T09:42:31;94001.78;;;24.25;93.08
7768;BME280;3928;42.626;23.382;2022-09-02T09:44:59;93994.09;;;24.35;88.53
7768;BME280;3928;42.626;23.382;2022-09-02T09:47:26;94001.41;;;24.42;87.30
7768;BME280;3928;42.626;23.382;2022-09-02T09:50:09;94004.06;;;24.30;86.86
7768;BME280;3928;42.626;23.382;2022-09-02T09:52:38;94000.63;;;24.29;87.44
7768;BME280;3928;42.626;23.382;2022-09-02T09:55:16;93996.22;;;24.30;89.32
7768;BME280;3928;42.626;23.382;2022-09-02T09:57:46;93993.84;;;24.38;87.97
7768;BME280;3928;42.626;23.382;2022-09-02T10:00:19;93998.28;;;24.48;87.37
7768;BME280;3928;42.626;23.382;2022-09-02T10:02:48;94006.19;;;24.60;85.92
7768;BME280;3928;42.626;23.382;2022-09-02T10:05:26;93999.78;;;24.64;85.35
7768;BME280;3928;42.626;23.382;2022-09-02T10:07:54;93999.28;;;24.70;86.83
7768;BME280;3928;42.626;23.382;2022-09-02T10:10:23;94004.09;;;24.76;87.26
7768;BME280;3928;42.626;23.382;2022-09-02T10:12:53;94005.50;;;24.80;84.81
7768;BME280;3928;42.626;23.382;2022-09-02T10:15:28;94004.31;;;24.84;86.61
7768;BME280;3928;42.626;23.382;2022-09-02T10:18:00;94002.41;;;24.86;86.91
7768;BME280;3928;42.626;23.382;2022-09-02T10:20:41;94008.28;;;24.90;85.35
7768;BME280;3928;42.626;23.382;2022-09-02T10:23:30;94011.25;;;24.96;85.91
7768;BME280;3928;42.626;23.382;2022-09-02T10:26:09;94010.06;;;25.00;85.32
7768;BME280;3928;42.626;23.382;2022-09-02T10:31:36;93993.72;;;25.08;86.12
7768;BME280;3928;42.626;23.382;2022-09-02T10:34:15;93986.94;;;25.17;87.03
7768;BME280;3928;42.626;23.382;2022-09-02T10:37:06;93998.50;;;25.36;84.67
7768;BME280;3928;42.626;23.382;2022-09-02T10:39:59;94000.34;;;25.57;84.20
7768;BME280;3928;42.626;23.382;2022-09-02T10:42:37;93999.00;;;25.85;83.77
7768;BME280;3928;42.626;23.382;2022-09-02T10:45:13;93999.72;;;26.19;80.02
7768;BME280;3928;42.626;23.382;2022-09-02T10:47:45;94001.19;;;26.44;79.96
7768;BME280;3928;42.626;23.382;2022-09-02T10:50:18;93988.94;;;26.54;78.02
7768;BME280;3928;42.626;23.382;2022-09-02T10:55:46;93984.38;;;26.87;75.26
7768;BME280;3928;42.626;23.382;2022-09-02T10:58:18;93996.72;;;27.07;74.30
7768;BME280;3928;42.626;23.382;2022-09-02T11:00:49;94000.50;;;27.14;73.34
7768;BME280;3928;42.626;23.382;2022-09-02T11:03:23;94000.50;;;27.14;71.84
7768;BME280;3928;42.626;23.382;2022-09-02T11:05:56;93984.09;;;27.10;73.18
7768;BME280;3928;42.626;23.382;2022-09-02T11:08:34;93994.25;;;27.15;72.82
7768;BME280;3928;42.626;23.382;2022-09-02T11:11:07;93986.34;;;27.15;72.12
7768;BME280;3928;42.626;23.382;2022-09-02T11:13:38;93985.66;;;27.13;73.27
7768;BME280;3928;42.626;23.382;2022-09-02T11:16:09;93979.16;;;27.17;71.03
7768;BME280;3928;42.626;23.382;2022-09-02T11:18:43;93979.47;;;27.33;71.29
7768;BME280;3928;42.626;23.382;2022-09-02T11:21:26;93985.94;;;27.60;72.59
7768;BME280;3928;42.626;23.382;2022-09-02T11:24:00;93977.66;;;27.74;70.69
7768;BME280;3928;42.626;23.382;2022-09-02T11:26:35;93983.94;;;27.83;69.61
7768;BME280;3928;42.626;23.382;2022-09-02T11:29:11;93976.44;;;27.88;70.24
7768;BME280;3928;42.626;23.382;2022-09-02T11:31:43;93972.81;;;27.89;69.53
7768;BME280;3928;42.626;23.382;2022-09-02T11:34:18;93964.56;;;27.63;67.93
7768;BME280;3928;42.626;23.382;2022-09-02T11:36:47;93972.31;;;27.55;68.77
7768;BME280;3928;42.626;23.382;2022-09-02T11:39:20;93965.09;;;27.37;67.14
7768;BME280;3928;42.626;23.382;2022-09-02T11:42:03;93954.59;;;27.17;70.26
7768;BME280;3928;42.626;23.382;2022-09-02T11:50:34;93917.44;;;27.79;71.25
7768;BME280;3928;42.626;23.382;2022-09-02T11:53:17;93937.44;;;28.11;66.28
7768;BME280;3928;42.626;23.382;2022-09-02T11:55:50;93936.59;;;28.01;66.34
7768;BME280;3928;42.626;23.382;2022-09-02T11:58:32;93938.94;;;28.04;67.74
7768;BME280;3928;42.626;23.382;2022-09-02T12:01:04;93947.84;;;27.33;67.89
7768;BME280;3928;42.626;23.382;2022-09-02T12:03:33;93959.22;;;26.73;70.76
7768;BME280;3928;42.626;23.382;2022-09-02T12:06:09;93946.44;;;26.38;73.11
7768;BME280;3928;42.626;23.382;2022-09-02T12:09:05;93953.56;;;26.15;74.29
7768;BME280;3928;42.626;23.382;2022-09-02T12:11:44;93948.84;;;26.09;74.19
7768;BME280;3928;42.626;23.382;2022-09-02T12:17:39;93955.44;;;26.03;75.22
7768;BME280;3928;42.626;23.382;2022-09-02T12:20:10;93941.84;;;25.98;76.65
7768;BME280;3928;42.626;23.382;2022-09-02T12:22:38;93945.38;;;26.08;74.96
7768;BME280;3928;42.626;23.382;2022-09-02T12:25:36;93935.63;;;26.20;75.28
7768;BME280;3928;42.626;23.382;2022-09-02T12:28:21;93923.03;;;26.23;75.62
7768;BME280;3928;42.626;23.382;2022-09-02T12:31:11;93921.25;;;26.24;74.58
7768;BME280;3928;42.626;23.382;2022-09-02T12:33:41;93924.63;;;26.36;74.79
7768;BME280;3928;42.626;23.382;2022-09-02T12:39:45;93910.44;;;26.69;75.46
7768;BME280;3928;42.626;23.382;2022-09-02T12:42:21;93909.34;;;26.71;73.76
7768;BME280;3928;42.626;23.382;2022-09-02T12:44:55;93909.88;;;26.65;75.57
7768;BME280;3928;42.626;23.382;2022-09-02T12:47:36;93902.69;;;26.67;74.03
7768;BME280;3928;42.626;23.382;2022-09-02T12:50:07;93913.66;;;26.72;75.61
7768;BME280;3928;42.626;23.382;2022-09-02T12:52:41;93905.47;;;26.75;74.57
7768;BME280;3928;42.626;23.382;2022-09-02T12:55:15;93901.34;;;26.83;75.07
7768;BME280;3928;42.626;23.382;2022-09-02T12:57:46;93890.31;;;26.89;73.94
7768;BME280;3928;42.626;23.382;2022-09-02T13:00:18;93896.00;;;26.94;74.47
7768;BME280;3928;42.626;23.382;2022-09-02T13:03:00;93901.53;;;26.91;73.52
7768;BME280;3928;42.626;23.382;2022-09-02T13:05:35;93854.94;;;26.51;72.85
7768;BME280;3928;42.626;23.382;2022-09-02T13:08:44;93905.22;;;26.78;74.29
7768;BME280;3928;42.626;23.382;2022-09-02T13:11:39;93867.13;;;26.52;72.41
7768;BME280;3928;42.626;23.382;2022-09-02T13:17:20;93904.88;;;26.62;72.40
7768;BME280;3928;42.626;23.382;2022-09-02T13:23:18;93906.19;;;26.47;73.76
7768;BME280;3928;42.626;23.382;2022-09-02T13:26:15;93898.41;;;26.04;80.02
7768;BME280;3928;42.626;23.382;2022-09-02T13:31:41;93906.22;;;25.19;85.29
7768;BME280;3928;42.626;23.382;2022-09-02T13:34:10;93870.53;;;24.27;91.41
7768;BME280;3928;42.626;23.382;2022-09-02T13:36:41;93905.22;;;24.19;94.25
7768;BME280;3928;42.626;23.382;2022-09-02T13:39:11;93908.53;;;23.99;95.49
7768;BME280;3928;42.626;23.382;2022-09-02T13:41:38;93907.00;;;23.72;95.48
7768;BME280;3928;42.626;23.382;2022-09-02T13:44:08;93914.47;;;23.66;96.01
7768;BME280;3928;42.626;23.382;2022-09-02T13:46:44;93921.88;;;23.48;98.28
7768;BME280;3928;42.626;23.382;2022-09-02T13:49:18;93918.50;;;23.34;100.00
7768;BME280;3928;42.626;23.382;2022-09-02T13:51:46;93927.59;;;23.05;100.00